createdAt,value
2019-05-17T00:01:33.865Z,3.90
2019-05-17T00:04:00.548Z,4.00
2019-05-17T00:06:27.665Z,3.77
2019-05-17T00:08:56.339Z,3.90
2019-05-17T00:11:23.088Z,3.63
2019-05-17T00:13:50.332Z,3.10
2019-05-17T00:16:17.559Z,3.20
2019-05-17T00:18:46.363Z,3.27
2019-05-17T00:21:13.200Z,2.77
2019-05-17T00:23:39.820Z,2.73
2019-05-17T00:26:07.161Z,3.03
2019-05-17T00:28:37.287Z,2.70
2019-05-17T00:31:06.491Z,3.10
2019-05-17T00:33:32.761Z,2.70
2019-05-17T00:35:59.455Z,3.20
2019-05-17T00:38:27.362Z,2.90
2019-05-17T00:40:56.357Z,3.07
2019-05-17T00:43:22.846Z,3.23
2019-05-17T00:45:50.036Z,3.20
2019-05-17T00:48:17.330Z,3.33
2019-05-17T00:50:44.565Z,3.50
2019-05-17T00:53:11.608Z,3.63
2019-05-17T00:55:38.429Z,4.17
2019-05-17T00:58:06.819Z,4.00
2019-05-17T01:00:33.525Z,5.60
2019-05-17T01:03:00.409Z,4.33
2019-05-17T01:05:27.465Z,4.37
2019-05-17T01:07:54.588Z,4.30
2019-05-17T01:10:21.200Z,5.73
2019-05-17T01:12:48.254Z,6.03
2019-05-17T01:15:16.798Z,6.10
2019-05-17T01:17:43.612Z,7.37
2019-05-17T01:20:10.648Z,7.03
2019-05-17T01:22:37.606Z,7.40
2019-05-17T01:25:06.336Z,6.70
2019-05-17T01:27:33.048Z,6.80
2019-05-17T01:29:59.904Z,6.70
2019-05-17T01:32:27.012Z,7.43
2019-05-17T01:34:56.313Z,7.00
2019-05-17T01:37:22.640Z,6.10
2019-05-17T01:39:49.220Z,7.23
2019-05-17T01:42:17.189Z,8.07
2019-05-17T01:44:47.175Z,8.93
2019-05-17T01:47:16.539Z,8.17
2019-05-17T01:49:42.689Z,9.00
2019-05-17T01:52:09.496Z,10.13
2019-05-17T01:54:36.516Z,9.57
2019-05-17T01:57:03.102Z,9.60
2019-05-17T01:59:30.012Z,8.27
2019-05-17T02:02:01.228Z,8.83
2019-05-17T02:04:28.120Z,8.53
2019-05-17T02:06:57.257Z,8.40
2019-05-17T02:09:34.765Z,9.77
2019-05-17T02:11:52.368Z,8.10
2019-05-17T02:14:19.300Z,8.50
2019-05-17T02:16:46.776Z,8.45
2019-05-17T02:19:13.625Z,8.27
2019-05-17T02:21:40.747Z,9.10
2019-05-17T02:24:07.921Z,8.97
2019-05-17T02:26:37.318Z,9.13
2019-05-17T02:29:03.641Z,10.77
2019-05-17T02:31:32.871Z,10.30
2019-05-17T02:34:02.811Z,11.07
2019-05-17T02:36:28.372Z,9.90
2019-05-17T02:38:55.388Z,10.30
2019-05-17T02:41:22.805Z,10.60
2019-05-17T02:43:49.441Z,12.80
2019-05-17T02:46:16.052Z,12.83
2019-05-17T02:48:43.063Z,12.40
2019-05-17T02:51:12.843Z,13.67
2019-05-17T02:53:38.480Z,13.50
2019-05-17T02:56:05.360Z,12.63
2019-05-17T02:58:33.073Z,14.77
2019-05-17T03:01:03.288Z,14.43
2019-05-17T03:03:28.964Z,14.20
2019-05-17T03:05:55.537Z,13.90
2019-05-17T03:08:23.557Z,14.67
2019-05-17T03:10:53.439Z,14.20
2019-05-17T03:13:19.296Z,14.70
2019-05-17T03:15:45.966Z,13.80
2019-05-17T03:18:13.439Z,14.37
2019-05-17T03:20:43.202Z,13.17
2019-05-17T03:23:12.447Z,14.40
2019-05-17T03:25:37.877Z,13.20
2019-05-17T03:28:04.980Z,13.20
2019-05-17T03:30:36.488Z,13.80
2019-05-17T03:33:07.400Z,13.63
2019-05-17T03:35:36.718Z,12.90
2019-05-17T03:38:03.504Z,13.70
2019-05-17T03:40:56.517Z,12.77
2019-05-17T03:42:57.427Z,13.40
2019-05-17T03:45:24.103Z,12.50
2019-05-17T03:47:53.168Z,12.80
2019-05-17T03:50:22.461Z,13.80
2019-05-17T03:52:48.225Z,13.37
2019-05-17T03:55:14.861Z,13.03
2019-05-17T03:57:44.195Z,12.03
2019-05-17T04:00:13.300Z,14.50
2019-05-17T04:02:43.791Z,14.67
2019-05-17T04:05:09.202Z,13.27
2019-05-17T04:07:36.138Z,13.70
2019-05-17T04:10:04.443Z,15.37
2019-05-17T04:12:32.737Z,14.30
2019-05-17T04:15:02.927Z,14.17
2019-05-17T04:17:32.539Z,16.03
2019-05-17T04:19:57.813Z,15.33
2019-05-17T04:22:25.213Z,16.00
2019-05-17T04:24:52.669Z,16.37
2019-05-17T04:27:22.796Z,15.13
2019-05-17T04:29:48.208Z,14.40
2019-05-17T04:32:15.117Z,17.87
2019-05-17T04:34:43.745Z,19.23
2019-05-17T04:37:12.918Z,17.77
2019-05-17T04:39:42.921Z,16.73
2019-05-17T04:42:08.275Z,15.20
2019-05-17T04:44:34.841Z,16.00
2019-05-17T04:47:03.082Z,14.97
2019-05-17T04:49:32.856Z,15.17
2019-05-17T04:51:58.684Z,15.37
2019-05-17T04:54:25.601Z,15.43
2019-05-17T04:56:53.398Z,15.17
2019-05-17T04:59:24.019Z,14.00
2019-05-17T05:01:53.546Z,13.30
2019-05-17T05:04:18.983Z,13.80
2019-05-17T05:06:46.017Z,14.10
2019-05-17T05:09:13.002Z,14.20
2019-05-17T05:11:53.308Z,11.80
2019-05-17T05:14:08.617Z,13.30
2019-05-17T05:16:35.202Z,13.10
2019-05-17T05:19:03.098Z,13.43
2019-05-17T05:21:32.245Z,12.03
2019-05-17T05:23:59.696Z,12.60
2019-05-17T05:26:26.640Z,13.80
2019-05-17T05:28:53.300Z,12.83
2019-05-17T05:31:19.911Z,13.00
2019-05-17T05:33:46.488Z,12.73
2019-05-17T05:36:13.268Z,11.53
2019-05-17T05:38:42.072Z,10.97
2019-05-17T05:41:08.548Z,9.03
2019-05-17T05:43:35.457Z,11.20
2019-05-17T05:46:02.844Z,10.20
2019-05-17T05:48:29.693Z,11.50
2019-05-17T05:50:57.212Z,11.30
2019-05-17T05:53:24.040Z,10.27
2019-05-17T05:55:51.802Z,10.80
2019-05-17T05:58:18.856Z,10.87
2019-05-17T06:00:45.448Z,10.20
2019-05-17T06:03:12.411Z,10.63
2019-05-17T06:05:39.130Z,10.10
2019-05-17T06:08:06.340Z,9.07
2019-05-17T06:10:34.300Z,8.60
2019-05-17T06:13:03.030Z,9.03
2019-05-17T06:15:31.934Z,10.30
2019-05-17T06:17:58.835Z,7.80
2019-05-17T06:20:26.380Z,8.63
2019-05-17T06:22:53.583Z,9.33
2019-05-17T06:25:23.435Z,10.03
2019-05-17T06:27:49.281Z,9.27
2019-05-17T06:30:16.353Z,10.17
2019-05-17T06:32:43.638Z,8.40
2019-05-17T06:35:12.629Z,9.40
2019-05-17T06:37:41.953Z,8.70
2019-05-17T06:40:08.404Z,10.40
2019-05-17T06:42:40.392Z,9.10
2019-05-17T06:45:04.173Z,9.07
2019-05-17T06:47:32.870Z,8.00
2019-05-17T06:49:59.664Z,8.83
2019-05-17T06:52:26.811Z,8.27
2019-05-17T06:54:53.392Z,8.87
2019-05-17T06:57:19.972Z,8.13
2019-05-17T06:59:47.437Z,8.50
2019-05-17T07:02:14.001Z,8.80
2019-05-17T07:04:40.560Z,8.57
2019-05-17T07:07:25.495Z,9.37
2019-05-17T07:09:52.301Z,8.60
2019-05-17T07:12:20.201Z,8.80
2019-05-17T07:14:47.744Z,8.27
2019-05-17T07:17:14.305Z,8.90
2019-05-17T07:19:41.220Z,9.37
2019-05-17T07:22:09.510Z,8.53
2019-05-17T07:24:36.448Z,10.17
2019-05-17T07:27:03.016Z,7.90
2019-05-17T07:29:30.278Z,8.90
2019-05-17T07:31:56.844Z,8.17
2019-05-17T07:34:24.738Z,9.63
2019-05-17T07:36:51.332Z,9.97
2019-05-17T07:39:20.490Z,8.57
2019-05-17T07:41:49.320Z,8.57
2019-05-17T07:44:15.569Z,9.43
2019-05-17T07:46:42.436Z,10.17
2019-05-17T07:49:10.872Z,10.03
2019-05-17T07:51:39.591Z,11.33
2019-05-17T07:54:06.232Z,9.60
2019-05-17T07:56:32.807Z,9.80
2019-05-17T07:59:00.033Z,10.03
2019-05-17T08:01:26.839Z,8.67
2019-05-17T08:03:53.897Z,10.67
2019-05-17T08:06:20.986Z,11.27
2019-05-17T08:08:50.055Z,9.80
2019-05-17T08:11:16.384Z,10.73
2019-05-17T08:13:43.062Z,10.27
2019-05-17T08:16:10.277Z,9.10
2019-05-17T08:18:37.204Z,10.73
2019-05-17T08:21:04.173Z,9.70
2019-05-17T08:23:30.740Z,10.47
2019-05-17T08:26:00.388Z,10.33
2019-05-17T08:28:27.275Z,12.20
2019-05-17T08:30:54.017Z,12.10
2019-05-17T08:33:20.596Z,12.63
2019-05-17T08:35:49.325Z,10.33
2019-05-17T08:38:15.782Z,11.67
2019-05-17T08:40:42.685Z,11.37
2019-05-17T08:43:10.077Z,11.57
2019-05-17T08:45:40.326Z,10.90
2019-05-17T08:48:06.397Z,11.83
2019-05-17T08:50:33.540Z,11.83
2019-05-17T08:53:00.376Z,11.40
2019-05-17T08:55:29.763Z,10.50
2019-05-17T08:57:55.830Z,11.67
2019-05-17T09:00:22.308Z,10.83
2019-05-17T09:02:50.030Z,11.57
2019-05-17T09:05:16.858Z,10.40
2019-05-17T09:07:43.436Z,10.70
2019-05-17T09:10:11.122Z,10.10
2019-05-17T09:12:40.538Z,9.90
2019-05-17T09:15:06.994Z,11.00
2019-05-17T09:17:33.564Z,12.70
2019-05-17T09:20:00.864Z,10.87
2019-05-17T09:22:30.406Z,10.83
2019-05-17T09:24:59.458Z,11.60
2019-05-17T09:27:25.805Z,10.00
2019-05-17T09:29:52.957Z,11.40
2019-05-17T09:32:20.100Z,10.50
2019-05-17T09:34:49.653Z,10.73
2019-05-17T09:37:18.751Z,9.90
2019-05-17T09:39:43.949Z,9.83
2019-05-17T09:42:10.992Z,10.70
2019-05-17T09:44:37.564Z,12.57
2019-05-17T09:47:04.653Z,11.93
2019-05-17T09:49:31.256Z,10.90
2019-05-17T09:52:00.034Z,11.33
2019-05-17T09:54:39.031Z,10.20
2019-05-17T09:56:54.828Z,10.90
2019-05-17T09:59:21.405Z,12.03
2019-05-17T10:01:49.513Z,10.93
2019-05-17T10:04:16.237Z,10.40
2019-05-17T10:06:42.820Z,10.50
2019-05-17T10:09:09.642Z,11.20
2019-05-17T10:11:36.593Z,11.43
2019-05-17T10:14:03.288Z,10.60
2019-05-17T10:16:31.357Z,10.60
2019-05-17T10:19:00.108Z,11.47
2019-05-17T10:21:26.904Z,10.60
2019-05-17T10:23:53.477Z,10.30
2019-05-17T10:26:20.500Z,9.43
2019-05-17T10:28:47.618Z,10.40
2019-05-17T10:31:14.200Z,9.60
2019-05-17T10:33:40.797Z,10.83
2019-05-17T10:36:07.385Z,12.10
2019-05-17T10:38:33.968Z,11.30
2019-05-17T10:41:00.577Z,12.57
2019-05-17T10:43:27.168Z,12.28
2019-05-17T10:45:54.848Z,11.07
2019-05-17T10:48:21.525Z,11.10
2019-05-17T10:50:49.719Z,11.30
2019-05-17T10:53:16.497Z,12.20
2019-05-17T10:55:43.112Z,9.93
2019-05-17T10:58:10.195Z,10.03
2019-05-17T11:00:37.273Z,10.77
2019-05-17T11:03:03.872Z,10.53
2019-05-17T11:05:30.963Z,10.27
2019-05-17T11:07:59.741Z,12.53
2019-05-17T11:10:26.717Z,12.47
2019-05-17T11:12:53.284Z,12.83
2019-05-17T11:15:20.967Z,11.07
2019-05-17T11:17:47.844Z,10.70
2019-05-17T11:20:14.742Z,9.90
2019-05-17T11:22:42.036Z,10.90
2019-05-17T11:25:08.747Z,11.07
2019-05-17T11:27:35.328Z,9.60
2019-05-17T11:30:02.117Z,10.83
2019-05-17T11:32:28.930Z,11.43
2019-05-17T11:34:55.604Z,10.70
2019-05-17T11:37:22.486Z,13.07
2019-05-17T11:39:50.349Z,13.77
2019-05-17T11:42:17.177Z,12.50
2019-05-17T11:44:43.765Z,14.30
2019-05-17T11:47:10.369Z,14.27
2019-05-17T11:49:38.049Z,14.10
2019-05-17T11:52:04.628Z,13.70
2019-05-17T11:54:31.507Z,13.60
2019-05-17T11:56:58.080Z,12.87
2019-05-17T11:59:24.665Z,15.77
2019-05-17T12:01:53.609Z,15.00
2019-05-17T12:04:20.189Z,13.80
2019-05-17T12:06:47.044Z,15.13
2019-05-17T12:09:13.662Z,14.43
2019-05-17T12:11:40.525Z,14.50
2019-05-17T12:14:07.365Z,13.83
2019-05-17T12:16:34.532Z,16.83
2019-05-17T12:19:01.573Z,14.43
2019-05-17T12:21:28.326Z,17.10
2019-05-17T12:23:55.198Z,16.80
2019-05-17T12:26:22.176Z,17.50
2019-05-17T12:28:49.020Z,20.40
2019-05-17T12:31:15.981Z,19.10
2019-05-17T12:33:42.567Z,20.27
2019-05-17T12:36:09.629Z,20.90
2019-05-17T12:38:36.554Z,20.30
2019-05-17T12:41:03.160Z,18.93
2019-05-17T12:43:29.833Z,18.00
2019-05-17T12:46:00.575Z,18.57
2019-05-17T12:48:25.229Z,17.83
2019-05-17T12:50:51.809Z,19.37
2019-05-17T12:53:18.709Z,19.10
2019-05-17T12:55:45.298Z,20.53
2019-05-17T12:58:11.904Z,16.90
2019-05-17T13:00:38.713Z,16.50
2019-05-17T13:03:06.268Z,16.50
2019-05-17T13:05:33.208Z,16.93
2019-05-17T13:08:00.556Z,19.83
2019-05-17T13:10:27.130Z,17.93
2019-05-17T13:12:53.720Z,16.10
2019-05-17T13:15:21.008Z,16.47
2019-05-17T13:17:47.589Z,17.60
2019-05-17T13:20:15.277Z,17.00
2019-05-17T13:22:42.114Z,17.90
2019-05-17T13:25:09.326Z,17.13
2019-05-17T13:27:39.015Z,16.97
2019-05-17T13:30:05.180Z,18.20
2019-05-17T13:32:32.170Z,17.67
2019-05-17T13:34:58.729Z,16.00
2019-05-17T13:37:25.346Z,16.37
2019-05-17T13:39:52.921Z,16.27
2019-05-17T13:42:20.045Z,17.13
2019-05-17T13:44:47.017Z,15.57
2019-05-17T13:47:14.241Z,16.00
2019-05-17T13:49:41.810Z,16.13
2019-05-17T13:52:08.421Z,13.93
2019-05-17T13:54:34.925Z,13.03
2019-05-17T13:57:01.862Z,14.30
2019-05-17T13:59:28.456Z,12.53
2019-05-17T14:01:55.073Z,13.20
2019-05-17T14:04:21.929Z,14.53
2019-05-17T14:06:49.626Z,12.53
2019-05-17T14:09:16.526Z,13.53
2019-05-17T14:11:43.372Z,14.00
2019-05-17T14:14:10.238Z,12.70
2019-05-17T14:16:37.087Z,13.17
2019-05-17T14:19:03.789Z,13.47
2019-05-17T14:21:30.408Z,12.50
2019-05-17T14:23:57.012Z,13.67
2019-05-17T14:26:23.942Z,14.20
2019-05-17T14:28:51.264Z,10.57
2019-05-17T14:31:18.202Z,12.80
2019-05-17T14:33:44.856Z,14.00
2019-05-17T14:36:11.806Z,11.53
2019-05-17T14:38:39.971Z,12.10
2019-05-17T14:41:08.559Z,12.50
2019-05-17T14:43:35.349Z,11.87
2019-05-17T14:46:03.048Z,12.17
2019-05-17T14:48:29.645Z,12.27
2019-05-17T14:50:56.268Z,11.30
2019-05-17T14:53:23.172Z,12.63
2019-05-17T14:55:50.759Z,10.47
2019-05-17T14:58:17.688Z,10.67
2019-05-17T15:00:44.536Z,9.80
2019-05-17T15:03:11.352Z,11.10
2019-05-17T15:05:38.009Z,10.97
2019-05-17T15:08:04.849Z,9.50
2019-05-17T15:10:31.689Z,10.40
2019-05-17T15:13:01.481Z,9.80
2019-05-17T15:15:27.262Z,9.33
2019-05-17T15:17:54.579Z,9.90
2019-05-17T15:20:21.525Z,8.70
2019-05-17T15:22:48.453Z,8.97
2019-05-17T15:25:15.042Z,8.43
2019-05-17T15:27:41.570Z,9.77
2019-05-17T15:30:08.485Z,9.63
2019-05-17T15:32:35.158Z,8.87
2019-05-17T15:35:01.772Z,10.07
2019-05-17T15:37:28.695Z,9.17
2019-05-17T15:39:55.289Z,9.20
2019-05-17T15:42:22.205Z,8.80
2019-05-17T15:44:49.022Z,10.43
2019-05-17T15:47:15.965Z,9.80
2019-05-17T15:49:42.861Z,9.40
2019-05-17T15:52:09.445Z,9.13
2019-05-17T15:54:36.053Z,9.17
2019-05-17T15:57:02.936Z,11.07
2019-05-17T15:59:30.385Z,11.83
2019-05-17T16:01:57.557Z,11.80
2019-05-17T16:04:24.800Z,12.27
2019-05-17T16:06:51.564Z,10.47
2019-05-17T16:09:18.184Z,9.80
2019-05-17T16:11:45.044Z,10.67
2019-05-17T16:14:12.140Z,10.47
2019-05-17T16:16:38.712Z,9.87
2019-05-17T16:19:05.863Z,10.40
2019-05-17T16:21:33.249Z,9.87
2019-05-17T16:24:00.151Z,9.80
2019-05-17T16:26:27.021Z,9.63
2019-05-17T16:28:53.921Z,8.00
2019-05-17T16:31:21.585Z,10.23
2019-05-17T16:33:50.866Z,8.40
2019-05-17T16:36:16.909Z,8.90
2019-05-17T16:38:43.493Z,8.83
2019-05-17T16:41:10.330Z,8.47
2019-05-17T16:43:37.149Z,10.70
2019-05-17T16:46:03.762Z,8.73
2019-05-17T16:48:30.644Z,9.90
2019-05-17T16:50:57.477Z,9.33
2019-05-17T16:53:25.112Z,9.00
2019-05-17T16:55:51.719Z,9.53
2019-05-17T16:58:18.599Z,9.90
2019-05-17T17:00:45.405Z,9.33
2019-05-17T17:03:11.981Z,9.37
2019-05-17T17:05:38.833Z,8.40
2019-05-17T17:08:07.029Z,8.67
2019-05-17T17:10:33.960Z,8.67
2019-05-17T17:13:02.205Z,8.10
2019-05-17T17:15:29.791Z,8.60
2019-05-17T17:17:56.373Z,7.90
2019-05-17T17:20:23.560Z,8.83
2019-05-17T17:22:50.190Z,8.60
2019-05-17T17:25:17.244Z,8.90
2019-05-17T17:27:44.937Z,8.97
2019-05-17T17:30:12.665Z,9.17
2019-05-17T17:32:39.253Z,9.50
2019-05-17T17:35:06.050Z,9.67
2019-05-17T17:37:33.316Z,9.23
2019-05-17T17:40:00.151Z,9.77
2019-05-17T17:42:27.104Z,10.10
2019-05-17T17:44:53.764Z,10.57
2019-05-17T17:47:20.674Z,10.50
2019-05-17T17:49:47.251Z,9.03
2019-05-17T17:52:13.843Z,9.60
2019-05-17T17:54:40.407Z,10.53
2019-05-17T17:57:08.028Z,9.93
2019-05-17T17:59:34.624Z,11.60
2019-05-17T18:02:01.197Z,10.33
2019-05-17T18:04:27.875Z,10.97
2019-05-17T18:06:54.736Z,10.60
2019-05-17T18:09:21.313Z,9.93
2019-05-17T18:11:48.479Z,9.70
2019-05-17T18:14:15.629Z,9.47
2019-05-17T18:16:42.574Z,9.23
2019-05-17T18:19:09.418Z,10.07
2019-05-17T18:21:36.694Z,10.00
2019-05-17T18:24:03.562Z,12.23
2019-05-17T18:26:30.898Z,9.33
2019-05-17T18:28:57.954Z,11.00
2019-05-17T18:31:24.559Z,10.80
2019-05-17T18:33:52.009Z,11.20
2019-05-17T18:36:18.893Z,11.30
2019-05-17T18:38:47.721Z,11.43
2019-05-17T18:41:14.326Z,10.20
2019-05-17T18:43:41.260Z,11.20
2019-05-17T18:46:08.044Z,12.37
2019-05-17T18:48:34.668Z,11.83
2019-05-17T18:51:01.253Z,10.97
2019-05-17T18:53:28.925Z,12.97
2019-05-17T18:55:55.844Z,12.30
2019-05-17T18:58:23.606Z,11.10
2019-05-17T19:00:51.472Z,10.93
2019-05-17T19:03:19.640Z,12.90
2019-05-17T19:05:46.412Z,12.70
2019-05-17T19:08:16.198Z,12.60
2019-05-17T19:10:43.138Z,12.53
2019-05-17T19:13:10.393Z,12.53
2019-05-17T19:15:37.032Z,12.60
2019-05-17T19:18:03.871Z,12.40
2019-05-17T19:20:30.836Z,12.93
2019-05-17T19:22:58.797Z,12.17
2019-05-17T19:25:25.634Z,12.33
2019-05-17T19:27:53.106Z,12.37
2019-05-17T19:30:19.722Z,13.80
2019-05-17T19:32:46.389Z,13.87
2019-05-17T19:35:13.529Z,12.40
2019-05-17T19:37:40.868Z,12.77
2019-05-17T19:40:07.930Z,13.67
2019-05-17T19:42:34.620Z,14.70
2019-05-17T19:45:01.208Z,14.07
2019-05-17T19:47:28.161Z,14.37
2019-05-17T19:49:54.732Z,14.60
2019-05-17T19:52:21.333Z,16.67
2019-05-17T19:54:47.941Z,13.87
2019-05-17T19:57:14.786Z,13.80
2019-05-17T19:59:41.625Z,15.23
2019-05-17T20:02:08.426Z,15.97
2019-05-17T20:04:35.521Z,14.80
2019-05-17T20:07:02.090Z,15.57
2019-05-17T20:09:29.020Z,14.70
2019-05-17T20:11:56.142Z,17.73
2019-05-17T20:14:22.994Z,16.10
2019-05-17T20:16:50.306Z,15.03
2019-05-17T20:19:17.392Z,15.53
2019-05-17T20:21:44.337Z,17.40
2019-05-17T20:24:11.053Z,16.97
2019-05-17T20:26:37.909Z,17.90
2019-05-17T20:29:04.559Z,15.03
2019-05-17T20:31:32.748Z,16.97
2019-05-17T20:33:59.341Z,19.90
2019-05-17T20:36:26.621Z,18.10
2019-05-17T20:38:55.009Z,14.40
2019-05-17T20:41:21.591Z,16.13
2019-05-17T20:43:48.274Z,16.17
2019-05-17T20:46:14.889Z,14.03
2019-05-17T20:48:41.469Z,14.37
2019-05-17T20:51:08.109Z,14.07
2019-05-17T20:53:35.533Z,14.13
2019-05-17T20:56:02.648Z,13.83
2019-05-17T20:58:31.079Z,15.30
2019-05-17T21:00:57.769Z,13.57
2019-05-17T21:03:24.349Z,14.50
2019-05-17T21:05:51.319Z,14.07
2019-05-17T21:08:17.887Z,14.70
2019-05-17T21:10:44.464Z,13.50
2019-05-17T21:13:11.716Z,14.50
2019-05-17T21:15:47.398Z,15.00
2019-05-17T21:18:06.854Z,13.30
2019-05-17T21:20:34.700Z,14.40
2019-05-17T21:23:01.962Z,13.43
2019-05-17T21:25:28.557Z,13.10
2019-05-17T21:27:55.755Z,11.80
2019-05-17T21:30:22.525Z,12.53
2019-05-17T21:32:49.409Z,13.20
2019-05-17T21:35:15.985Z,12.10
2019-05-17T21:37:42.970Z,13.33
2019-05-17T21:40:09.862Z,13.80
2019-05-17T21:42:36.812Z,14.03
2019-05-17T21:45:04.490Z,12.07
2019-05-17T21:47:31.085Z,14.20
2019-05-17T21:49:57.944Z,14.93
2019-05-17T21:52:26.215Z,13.70
2019-05-17T21:54:52.790Z,13.50
2019-05-17T21:57:19.371Z,15.80
2019-05-17T21:59:46.010Z,15.07
2019-05-17T22:02:12.869Z,15.80
2019-05-17T22:04:39.533Z,15.20
2019-05-17T22:07:06.132Z,14.27
2019-05-17T22:09:33.804Z,15.10
2019-05-17T22:12:04.024Z,13.83
2019-05-17T22:14:30.720Z,15.27
2019-05-17T22:16:57.708Z,14.07
2019-05-17T22:19:24.327Z,15.50
2019-05-17T22:21:51.241Z,15.33
2019-05-17T22:24:17.807Z,14.33
2019-05-17T22:26:44.377Z,15.33
2019-05-17T22:29:10.983Z,15.07
2019-05-17T22:31:39.048Z,15.63
2019-05-17T22:34:06.221Z,15.90
2019-05-17T22:36:32.853Z,15.93
2019-05-17T22:38:59.806Z,14.70
2019-05-17T22:41:27.145Z,15.70
2019-05-17T22:43:56.268Z,17.10
2019-05-17T22:46:35.498Z,17.00
2019-05-17T22:48:53.417Z,18.03
2019-05-17T22:51:20.400Z,19.00
2019-05-17T22:53:46.992Z,17.10
2019-05-17T22:56:14.149Z,20.70
2019-05-17T22:58:41.528Z,17.07
2019-05-17T23:01:08.155Z,18.47
2019-05-17T23:03:34.762Z,18.67
2019-05-17T23:06:03.620Z,18.10
2019-05-17T23:08:30.617Z,23.60
2019-05-17T23:10:58.289Z,18.50
2019-05-17T23:13:24.890Z,20.60
2019-05-17T23:16:01.390Z,18.17
2019-05-17T23:18:30.080Z,18.83
2019-05-17T23:20:57.124Z,16.93
2019-05-17T23:23:23.726Z,18.37
2019-05-17T23:25:50.561Z,19.77
2019-05-17T23:28:17.740Z,18.17
2019-05-17T23:30:45.155Z,17.40
2019-05-17T23:33:12.393Z,17.13
2019-05-17T23:35:39.740Z,17.03
2019-05-17T23:38:06.783Z,18.50
2019-05-17T23:40:33.802Z,16.57
2019-05-17T23:43:00.741Z,16.90
2019-05-17T23:45:27.313Z,16.70
2019-05-17T23:47:54.258Z,15.97
2019-05-17T23:50:21.160Z,16.27
2019-05-17T23:52:47.754Z,18.37
2019-05-17T23:55:15.565Z,17.43
2019-05-17T23:57:42.130Z,17.93
